sensor_id;sensor_type;location;lat;lon;timestamp;P1;durP1;ratioP1;P2;durP2;ratioP2
29534;SDS011;16475;52.650;8.116;2022-10-15T00:01:06;2.97;;;2.40;;
29534;SDS011;16475;52.650;8.116;2022-10-15T00:03:37;3.40;;;3.17;;
29534;SDS011;16475;52.650;8.116;2022-10-15T00:09:51;8.30;;;2.90;;
29534;SDS011;16475;52.650;8.116;2022-10-15T00:12:16;6.70;;;3.40;;
29534;SDS011;16475;52.650;8.116;2022-10-15T00:14:42;5.00;;;3.20;;
29534;SDS011;16475;52.650;8.116;2022-10-15T00:17:07;5.03;;;2.80;;
29534;SDS011;16475;52.650;8.116;2022-10-15T00:19:32;6.13;;;3.20;;
29534;SDS011;16475;52.650;8.116;2022-10-15T00:28:58;4.87;;;2.73;;
29534;SDS011;16475;52.650;8.116;2022-10-15T00:31:27;5.00;;;3.00;;
29534;SDS011;16475;52.650;8.116;2022-10-15T00:37:43;4.47;;;2.73;;
29534;SDS011;16475;52.650;8.116;2022-10-15T00:40:10;2.63;;;2.43;;
29534;SDS011;16475;52.650;8.116;2022-10-15T00:42:36;3.50;;;2.90;;
29534;SDS011;16475;52.650;8.116;2022-10-15T00:45:02;7.50;;;2.93;;
29534;SDS011;16475;52.650;8.116;2022-10-15T00:47:38;6.70;;;3.17;;
29534;SDS011;16475;52.650;8.116;2022-10-15T00:57:15;3.00;;;2.80;;
29534;SDS011;16475;52.650;8.116;2022-10-15T00:59:42;3.90;;;2.70;;
29534;SDS011;16475;52.650;8.116;2022-10-15T01:02:12;4.30;;;2.70;;
29534;SDS011;16475;52.650;8.116;2022-10-15T01:12:27;3.30;;;2.20;;
29534;SDS011;16475;52.650;8.116;2022-10-15T01:15:04;2.30;;;2.20;;
29534;SDS011;16475;52.650;8.116;2022-10-15T01:18:17;3.10;;;2.37;;
29534;SDS011;16475;52.650;8.116;2022-10-15T01:29:39;8.70;;;2.60;;
29534;SDS011;16475;52.650;8.116;2022-10-15T01:32:19;4.03;;;2.13;;
29534;SDS011;16475;52.650;8.116;2022-10-15T01:46:14;3.63;;;2.43;;
29534;SDS011;16475;52.650;8.116;2022-10-15T01:48:58;2.27;;;2.13;;
29534;SDS011;16475;52.650;8.116;2022-10-15T01:58:59;4.77;;;2.50;;
29534;SDS011;16475;52.650;8.116;2022-10-15T02:01:27;2.47;;;2.00;;
29534;SDS011;16475;52.650;8.116;2022-10-15T02:03:52;2.10;;;2.00;;
29534;SDS011;16475;52.650;8.116;2022-10-15T02:13:58;3.10;;;2.30;;
29534;SDS011;16475;52.650;8.116;2022-10-15T02:16:37;3.07;;;2.17;;
29534;SDS011;16475;52.650;8.116;2022-10-15T02:19:06;1.83;;;1.70;;
29534;SDS011;16475;52.650;8.116;2022-10-15T02:25:27;3.23;;;2.33;;
29534;SDS011;16475;52.650;8.116;2022-10-15T02:27:53;3.13;;;2.40;;
29534;SDS011;16475;52.650;8.116;2022-10-15T02:30:20;6.43;;;2.27;;
29534;SDS011;16475;52.650;8.116;2022-10-15T02:32:47;3.50;;;2.97;;
29534;SDS011;16475;52.650;8.116;2022-10-15T02:35:19;4.70;;;2.87;;
29534;SDS011;16475;52.650;8.116;2022-10-15T02:37:46;3.17;;;2.87;;
29534;SDS011;16475;52.650;8.116;2022-10-15T02:55:25;8.90;;;3.50;;
29534;SDS011;16475;52.650;8.116;2022-10-15T02:57:50;5.33;;;3.00;;
29534;SDS011;16475;52.650;8.116;2022-10-15T03:00:16;4.30;;;3.63;;
29534;SDS011;16475;52.650;8.116;2022-10-15T03:02:43;6.17;;;3.87;;
29534;SDS011;16475;52.650;8.116;2022-10-15T03:05:10;7.40;;;4.00;;
29534;SDS011;16475;52.650;8.116;2022-10-15T03:07:35;5.23;;;3.97;;
29534;SDS011;16475;52.650;8.116;2022-10-15T03:21:23;7.17;;;3.17;;
29534;SDS011;16475;52.650;8.116;2022-10-15T03:23:48;3.73;;;3.43;;
29534;SDS011;16475;52.650;8.116;2022-10-15T03:26:20;5.63;;;4.20;;
29534;SDS011;16475;52.650;8.116;2022-10-15T03:39:47;9.67;;;3.97;;
29534;SDS011;16475;52.650;8.116;2022-10-15T03:42:14;5.27;;;3.57;;
29534;SDS011;16475;52.650;8.116;2022-10-15T03:44:46;5.10;;;4.57;;
29534;SDS011;16475;52.650;8.116;2022-10-15T03:47:15;7.20;;;4.03;;
29534;SDS011;16475;52.650;8.116;2022-10-15T03:49:44;13.27;;;3.83;;
29534;SDS011;16475;52.650;8.116;2022-10-15T03:52:09;20.40;;;5.10;;
29534;SDS011;16475;52.650;8.116;2022-10-15T03:54:35;7.80;;;4.37;;
29534;SDS011;16475;52.650;8.116;2022-10-15T04:00:47;4.77;;;3.60;;
29534;SDS011;16475;52.650;8.116;2022-10-15T04:11:06;4.10;;;3.70;;
29534;SDS011;16475;52.650;8.116;2022-10-15T04:13:31;8.33;;;4.30;;
29534;SDS011;16475;52.650;8.116;2022-10-15T04:15:57;3.00;;;2.80;;
29534;SDS011;16475;52.650;8.116;2022-10-15T04:18:22;5.30;;;3.80;;
29534;SDS011;16475;52.650;8.116;2022-10-15T04:20:52;6.07;;;3.40;;
29534;SDS011;16475;52.650;8.116;2022-10-15T04:23:20;2.93;;;2.37;;
29534;SDS011;16475;52.650;8.116;2022-10-15T04:33:44;4.30;;;3.30;;
29534;SDS011;16475;52.650;8.116;2022-10-15T04:36:12;3.37;;;3.07;;
29534;SDS011;16475;52.650;8.116;2022-10-15T04:38:47;12.67;;;3.57;;
29534;SDS011;16475;52.650;8.116;2022-10-15T04:45:04;3.87;;;3.47;;
29534;SDS011;16475;52.650;8.116;2022-10-15T04:47:30;2.83;;;2.63;;
29534;SDS011;16475;52.650;8.116;2022-10-15T04:50:06;2.70;;;2.50;;
29534;SDS011;16475;52.650;8.116;2022-10-15T05:03:55;4.20;;;3.10;;
29534;SDS011;16475;52.650;8.116;2022-10-15T05:06:20;4.53;;;3.27;;
29534;SDS011;16475;52.650;8.116;2022-10-15T05:12:45;4.73;;;3.00;;
29534;SDS011;16475;52.650;8.116;2022-10-15T05:15:11;4.43;;;2.80;;
29534;SDS011;16475;52.650;8.116;2022-10-15T05:17:37;3.73;;;2.80;;
29534;SDS011;16475;52.650;8.116;2022-10-15T05:26:54;3.73;;;3.40;;
29534;SDS011;16475;52.650;8.116;2022-10-15T05:29:21;6.53;;;2.73;;
29534;SDS011;16475;52.650;8.116;2022-10-15T05:31:48;3.23;;;2.77;;
29534;SDS011;16475;52.650;8.116;2022-10-15T05:34:18;3.43;;;3.07;;
29534;SDS011;16475;52.650;8.116;2022-10-15T05:43:53;9.63;;;4.03;;
29534;SDS011;16475;52.650;8.116;2022-10-15T05:46:24;11.83;;;5.13;;
29534;SDS011;16475;52.650;8.116;2022-10-15T05:48:54;9.83;;;4.87;;
29534;SDS011;16475;52.650;8.116;2022-10-15T05:51:25;10.17;;;4.50;;
29534;SDS011;16475;52.650;8.116;2022-10-15T06:00:52;6.60;;;2.90;;
29534;SDS011;16475;52.650;8.116;2022-10-15T06:03:18;9.93;;;3.53;;
29534;SDS011;16475;52.650;8.116;2022-10-15T06:05:44;17.10;;;6.00;;
29534;SDS011;16475;52.650;8.116;2022-10-15T06:15:44;13.37;;;6.90;;
29534;SDS011;16475;52.650;8.116;2022-10-15T06:18:10;12.13;;;5.40;;
29534;SDS011;16475;52.650;8.116;2022-10-15T06:20:36;15.67;;;7.60;;
29534;SDS011;16475;52.650;8.116;2022-10-15T06:34:42;19.43;;;8.70;;
29534;SDS011;16475;52.650;8.116;2022-10-15T06:37:08;17.57;;;8.43;;
29534;SDS011;16475;52.650;8.116;2022-10-15T06:39:33;17.50;;;9.37;;
29534;SDS011;16475;52.650;8.116;2022-10-15T06:41:59;24.10;;;10.63;;
29534;SDS011;16475;52.650;8.116;2022-10-15T06:44:36;21.20;;;9.83;;
29534;SDS011;16475;52.650;8.116;2022-10-15T06:47:02;16.43;;;8.50;;
29534;SDS011;16475;52.650;8.116;2022-10-15T06:49:27;21.33;;;10.33;;
29534;SDS011;16475;52.650;8.116;2022-10-15T06:58:25;29.53;;;11.37;;
29534;SDS011;16475;52.650;8.116;2022-10-15T07:00:50;30.73;;;11.90;;
29534;SDS011;16475;52.650;8.116;2022-10-15T07:03:16;25.40;;;11.47;;
29534;SDS011;16475;52.650;8.116;2022-10-15T07:09:29;26.13;;;11.60;;
29534;SDS011;16475;52.650;8.116;2022-10-15T07:11:54;26.07;;;11.27;;
29534;SDS011;16475;52.650;8.116;2022-10-15T07:14:20;21.80;;;9.67;;
29534;SDS011;16475;52.650;8.116;2022-10-15T07:16:45;22.33;;;10.87;;
29534;SDS011;16475;52.650;8.116;2022-10-15T07:19:11;20.40;;;10.53;;
29534;SDS011;16475;52.650;8.116;2022-10-15T07:21:36;23.23;;;10.33;;
29534;SDS011;16475;52.650;8.116;2022-10-15T07:24:01;22.80;;;11.10;;
29534;SDS011;16475;52.650;8.116;2022-10-15T07:33:36;24.67;;;11.80;;
29534;SDS011;16475;52.650;8.116;2022-10-15T07:36:05;24.93;;;11.10;;
29534;SDS011;16475;52.650;8.116;2022-10-15T07:38:32;25.83;;;11.40;;
29534;SDS011;16475;52.650;8.116;2022-10-15T07:48:41;27.70;;;11.87;;
29534;SDS011;16475;52.650;8.116;2022-10-15T07:51:06;25.03;;;12.50;;
29534;SDS011;16475;52.650;8.116;2022-10-15T07:53:32;30.23;;;11.27;;
29534;SDS011;16475;52.650;8.116;2022-10-15T07:56:01;23.90;;;12.87;;
29534;SDS011;16475;52.650;8.116;2022-10-15T07:58:31;21.80;;;11.20;;
29534;SDS011;16475;52.650;8.116;2022-10-15T08:01:01;27.13;;;11.50;;
29534;SDS011;16475;52.650;8.116;2022-10-15T08:03:28;23.90;;;11.40;;
29534;SDS011;16475;52.650;8.116;2022-10-15T08:05:54;24.70;;;12.20;;
29534;SDS011;16475;52.650;8.116;2022-10-15T08:08:21;22.87;;;11.10;;
29534;SDS011;16475;52.650;8.116;2022-10-15T08:25:18;24.23;;;12.87;;
29534;SDS011;16475;52.650;8.116;2022-10-15T08:27:43;45.80;;;16.20;;
29534;SDS011;16475;52.650;8.116;2022-10-15T08:31:31;39.90;;;16.13;;
29534;SDS011;16475;52.650;8.116;2022-10-15T08:34:00;35.20;;;15.43;;
29534;SDS011;16475;52.650;8.116;2022-10-15T08:47:49;41.10;;;17.33;;
29534;SDS011;16475;52.650;8.116;2022-10-15T08:53:04;41.80;;;17.50;;
29534;SDS011;16475;52.650;8.116;2022-10-15T08:55:37;54.17;;;20.10;;
29534;SDS011;16475;52.650;8.116;2022-10-15T08:58:05;47.17;;;19.57;;
29534;SDS011;16475;52.650;8.116;2022-10-15T09:00:53;44.10;;;18.27;;
29534;SDS011;16475;52.650;8.116;2022-10-15T09:03:38;44.93;;;18.13;;
29534;SDS011;16475;52.650;8.116;2022-10-15T09:15:31;45.53;;;17.50;;
29534;SDS011;16475;52.650;8.116;2022-10-15T09:17:57;55.47;;;21.13;;
29534;SDS011;16475;52.650;8.116;2022-10-15T09:20:29;39.27;;;15.30;;
29534;SDS011;16475;52.650;8.116;2022-10-15T09:22:57;56.67;;;20.40;;
29534;SDS011;16475;52.650;8.116;2022-10-15T09:35:36;52.60;;;20.00;;
29534;SDS011;16475;52.650;8.116;2022-10-15T09:44:30;46.53;;;20.90;;
29534;SDS011;16475;52.650;8.116;2022-10-15T09:46:58;68.13;;;22.37;;
29534;SDS011;16475;52.650;8.116;2022-10-15T09:49:25;61.07;;;26.10;;
29534;SDS011;16475;52.650;8.116;2022-10-15T10:02:19;64.23;;;25.60;;
29534;SDS011;16475;52.650;8.116;2022-10-15T10:04:46;64.10;;;24.90;;
29534;SDS011;16475;52.650;8.116;2022-10-15T10:14:51;70.63;;;24.70;;
29534;SDS011;16475;52.650;8.116;2022-10-15T10:17:19;73.47;;;23.77;;
29534;SDS011;16475;52.650;8.116;2022-10-15T10:26:03;69.50;;;25.83;;
29534;SDS011;16475;52.650;8.116;2022-10-15T10:31:14;79.47;;;26.27;;
29534;SDS011;16475;52.650;8.116;2022-10-15T10:33:48;77.97;;;25.43;;
29534;SDS011;16475;52.650;8.116;2022-10-15T10:36:19;73.93;;;27.00;;
29534;SDS011;16475;52.650;8.116;2022-10-15T10:38:57;74.03;;;25.37;;
29534;SDS011;16475;52.650;8.116;2022-10-15T10:41:46;89.33;;;28.63;;
29534;SDS011;16475;52.650;8.116;2022-10-15T10:44:19;70.93;;;22.00;;
29534;SDS011;16475;52.650;8.116;2022-10-15T10:47:00;72.23;;;26.80;;
29534;SDS011;16475;52.650;8.116;2022-10-15T10:52:08;70.10;;;24.83;;
29534;SDS011;16475;52.650;8.116;2022-10-15T10:54:44;62.90;;;23.53;;
29534;SDS011;16475;52.650;8.116;2022-10-15T10:57:10;56.53;;;21.20;;
29534;SDS011;16475;52.650;8.116;2022-10-15T10:59:43;49.93;;;20.50;;
29534;SDS011;16475;52.650;8.116;2022-10-15T11:02:15;61.57;;;23.90;;
29534;SDS011;16475;52.650;8.116;2022-10-15T11:04:40;67.53;;;20.87;;
29534;SDS011;16475;52.650;8.116;2022-10-15T11:07:26;41.63;;;18.70;;
29534;SDS011;16475;52.650;8.116;2022-10-15T11:58:07;38.40;;;17.10;;
29534;SDS011;16475;52.650;8.116;2022-10-15T12:00:41;33.83;;;16.83;;
29534;SDS011;16475;52.650;8.116;2022-10-15T12:05:49;37.13;;;15.77;;
29534;SDS011;16475;52.650;8.116;2022-10-15T12:08:18;33.87;;;15.57;;
29534;SDS011;16475;52.650;8.116;2022-10-15T12:10:54;36.50;;;16.50;;
29534;SDS011;16475;52.650;8.116;2022-10-15T12:16:05;25.27;;;14.60;;
29534;SDS011;16475;52.650;8.116;2022-10-15T12:21:32;24.70;;;14.90;;
29534;SDS011;16475;52.650;8.116;2022-10-15T12:24:03;23.60;;;14.10;;
29534;SDS011;16475;52.650;8.116;2022-10-15T12:26:34;20.10;;;12.40;;
29534;SDS011;16475;52.650;8.116;2022-10-15T12:29:02;25.00;;;13.00;;
29534;SDS011;16475;52.650;8.116;2022-10-15T12:31:42;22.20;;;13.20;;
29534;SDS011;16475;52.650;8.116;2022-10-15T12:34:29;23.03;;;13.73;;
29534;SDS011;16475;52.650;8.116;2022-10-15T12:37:02;22.40;;;14.80;;
29534;SDS011;16475;52.650;8.116;2022-10-15T12:39:30;25.20;;;13.33;;
29534;SDS011;16475;52.650;8.116;2022-10-15T12:41:56;19.03;;;11.63;;
29534;SDS011;16475;52.650;8.116;2022-10-15T12:46:54;19.00;;;10.37;;
29534;SDS011;16475;52.650;8.116;2022-10-15T12:51:56;19.83;;;10.90;;
29534;SDS011;16475;52.650;8.116;2022-10-15T12:54:40;18.37;;;10.40;;
29534;SDS011;16475;52.650;8.116;2022-10-15T13:00:26;14.97;;;8.90;;
29534;SDS011;16475;52.650;8.116;2022-10-15T13:02:55;16.30;;;8.60;;
29534;SDS011;16475;52.650;8.116;2022-10-15T13:05:30;18.17;;;10.37;;
29534;SDS011;16475;52.650;8.116;2022-10-15T13:07:57;15.97;;;9.37;;
29534;SDS011;16475;52.650;8.116;2022-10-15T13:10:28;20.20;;;8.37;;
29534;SDS011;16475;52.650;8.116;2022-10-15T13:13:00;18.53;;;10.30;;
29534;SDS011;16475;52.650;8.116;2022-10-15T13:15:28;17.13;;;9.23;;
29534;SDS011;16475;52.650;8.116;2022-10-15T13:17:55;16.30;;;9.00;;
29534;SDS011;16475;52.650;8.116;2022-10-15T13:20:28;13.60;;;7.80;;
29534;SDS011;16475;52.650;8.116;2022-10-15T13:23:08;14.17;;;8.60;;
29534;SDS011;16475;52.650;8.116;2022-10-15T13:25:36;17.90;;;10.57;;
29534;SDS011;16475;52.650;8.116;2022-10-15T13:28:01;21.27;;;9.07;;
29534;SDS011;16475;52.650;8.116;2022-10-15T13:30:26;9.93;;;7.00;;
29534;SDS011;16475;52.650;8.116;2022-10-15T13:32:53;12.90;;;8.00;;
29534;SDS011;16475;52.650;8.116;2022-10-15T13:35:27;14.30;;;8.03;;
29534;SDS011;16475;52.650;8.116;2022-10-15T13:37:54;20.90;;;8.73;;
29534;SDS011;16475;52.650;8.116;2022-10-15T13:40:29;19.70;;;9.13;;
29534;SDS011;16475;52.650;8.116;2022-10-15T13:43:00;11.83;;;7.67;;
29534;SDS011;16475;52.650;8.116;2022-10-15T13:45:33;12.30;;;7.60;;
29534;SDS011;16475;52.650;8.116;2022-10-15T13:47:58;17.33;;;7.80;;
29534;SDS011;16475;52.650;8.116;2022-10-15T13:50:25;10.53;;;6.80;;
29534;SDS011;16475;52.650;8.116;2022-10-15T13:52:53;9.50;;;7.10;;
29534;SDS011;16475;52.650;8.116;2022-10-15T13:55:36;10.47;;;6.37;;
29534;SDS011;16475;52.650;8.116;2022-10-15T13:58:05;13.30;;;7.60;;
29534;SDS011;16475;52.650;8.116;2022-10-15T14:03:36;20.57;;;5.60;;
29534;SDS011;16475;52.650;8.116;2022-10-15T14:08:52;6.57;;;4.60;;
29534;SDS011;16475;52.650;8.116;2022-10-15T14:11:19;8.80;;;4.70;;
29534;SDS011;16475;52.650;8.116;2022-10-15T14:13:46;7.37;;;5.40;;
29534;SDS011;16475;52.650;8.116;2022-10-15T14:16:37;8.23;;;5.00;;
29534;SDS011;16475;52.650;8.116;2022-10-15T14:19:08;9.90;;;4.50;;
29534;SDS011;16475;52.650;8.116;2022-10-15T14:21:35;7.13;;;4.87;;
29534;SDS011;16475;52.650;8.116;2022-10-15T14:24:03;14.07;;;4.97;;
29534;SDS011;16475;52.650;8.116;2022-10-15T14:26:29;6.13;;;4.97;;
29534;SDS011;16475;52.650;8.116;2022-10-15T14:28:55;12.67;;;4.67;;
29534;SDS011;16475;52.650;8.116;2022-10-15T14:31:27;10.77;;;5.00;;
29534;SDS011;16475;52.650;8.116;2022-10-15T14:33:53;8.63;;;5.40;;
29534;SDS011;16475;52.650;8.116;2022-10-15T14:36:23;11.47;;;5.10;;
29534;SDS011;16475;52.650;8.116;2022-10-15T14:38:50;6.13;;;4.30;;
29534;SDS011;16475;52.650;8.116;2022-10-15T14:41:28;4.73;;;4.20;;
29534;SDS011;16475;52.650;8.116;2022-10-15T14:46:50;4.13;;;3.57;;
29534;SDS011;16475;52.650;8.116;2022-10-15T14:49:25;4.87;;;3.70;;
29534;SDS011;16475;52.650;8.116;2022-10-15T14:54:39;3.97;;;3.40;;
29534;SDS011;16475;52.650;8.116;2022-10-15T14:57:25;3.63;;;3.30;;
29534;SDS011;16475;52.650;8.116;2022-10-15T14:59:53;5.43;;;3.60;;
29534;SDS011;16475;52.650;8.116;2022-10-15T15:02:20;5.87;;;3.90;;
29534;SDS011;16475;52.650;8.116;2022-10-15T15:04:52;5.23;;;3.33;;
29534;SDS011;16475;52.650;8.116;2022-10-15T15:07:38;9.20;;;4.57;;
29534;SDS011;16475;52.650;8.116;2022-10-15T15:10:04;4.90;;;4.40;;
29534;SDS011;16475;52.650;8.116;2022-10-15T15:12:31;3.83;;;3.50;;
29534;SDS011;16475;52.650;8.116;2022-10-15T15:14:57;4.20;;;3.90;;
29534;SDS011;16475;52.650;8.116;2022-10-15T15:17:23;4.40;;;3.87;;
29534;SDS011;16475;52.650;8.116;2022-10-15T15:19:50;3.37;;;3.00;;
29534;SDS011;16475;52.650;8.116;2022-10-15T15:22:31;5.60;;;3.63;;
29534;SDS011;16475;52.650;8.116;2022-10-15T15:24:58;4.97;;;3.57;;
29534;SDS011;16475;52.650;8.116;2022-10-15T15:27:26;6.37;;;4.43;;
29534;SDS011;16475;52.650;8.116;2022-10-15T15:29:53;12.10;;;4.00;;
29534;SDS011;16475;52.650;8.116;2022-10-15T15:32:19;3.70;;;3.40;;
29534;SDS011;16475;52.650;8.116;2022-10-15T15:34:45;3.63;;;3.33;;
29534;SDS011;16475;52.650;8.116;2022-10-15T15:37:21;3.40;;;3.20;;
29534;SDS011;16475;52.650;8.116;2022-10-15T15:39:47;3.43;;;3.23;;
29534;SDS011;16475;52.650;8.116;2022-10-15T15:42:14;4.53;;;3.07;;
29534;SDS011;16475;52.650;8.116;2022-10-15T15:44:44;3.90;;;3.60;;
29534;SDS011;16475;52.650;8.116;2022-10-15T15:47:09;3.93;;;3.63;;
29534;SDS011;16475;52.650;8.116;2022-10-15T15:49:35;3.17;;;2.97;;
29534;SDS011;16475;52.650;8.116;2022-10-15T15:52:02;3.63;;;3.40;;
29534;SDS011;16475;52.650;8.116;2022-10-15T15:54:28;3.30;;;3.10;;
29534;SDS011;16475;52.650;8.116;2022-10-15T15:56:54;5.50;;;4.20;;
29534;SDS011;16475;52.650;8.116;2022-10-15T15:59:19;5.23;;;3.10;;
29534;SDS011;16475;52.650;8.116;2022-10-15T16:01:45;3.57;;;3.37;;
29534;SDS011;16475;52.650;8.116;2022-10-15T16:04:12;4.27;;;3.87;;
29534;SDS011;16475;52.650;8.116;2022-10-15T16:06:39;6.10;;;4.20;;
29534;SDS011;16475;52.650;8.116;2022-10-15T16:09:04;3.90;;;3.60;;
29534;SDS011;16475;52.650;8.116;2022-10-15T16:11:30;5.53;;;4.87;;
29534;SDS011;16475;52.650;8.116;2022-10-15T16:13:56;3.90;;;3.60;;
29534;SDS011;16475;52.650;8.116;2022-10-15T16:16:22;4.67;;;4.20;;
29534;SDS011;16475;52.650;8.116;2022-10-15T16:18:48;3.37;;;3.10;;
29534;SDS011;16475;52.650;8.116;2022-10-15T16:21:19;7.73;;;3.83;;
29534;SDS011;16475;52.650;8.116;2022-10-15T16:23:46;5.70;;;4.23;;
29534;SDS011;16475;52.650;8.116;2022-10-15T16:26:11;3.80;;;3.50;;
29534;SDS011;16475;52.650;8.116;2022-10-15T16:28:37;4.53;;;4.23;;
29534;SDS011;16475;52.650;8.116;2022-10-15T16:34:01;4.40;;;3.93;;
29534;SDS011;16475;52.650;8.116;2022-10-15T16:36:28;9.43;;;4.30;;
29534;SDS011;16475;52.650;8.116;2022-10-15T16:38:53;4.73;;;4.37;;
29534;SDS011;16475;52.650;8.116;2022-10-15T16:41:18;5.37;;;4.93;;
29534;SDS011;16475;52.650;8.116;2022-10-15T16:43:44;4.87;;;4.47;;
29534;SDS011;16475;52.650;8.116;2022-10-15T16:46:11;4.90;;;4.40;;
